Time;durP1;ratioP1;P1;durP2;ratioP2;P2;SDS_P1;SDS_P2;PMS_P1;PMS_P2;Temp;Humidity;BMP_temperature;BMP_pressure;BME280_temperature;BME280_humidity;BME280_pressure;Samples;Min_cycle;Max_cycle;Signal;HPM_P1;HPM_P2
2022/06/07 00:00:10;;;;;;;1999.90;999.90;;;;;;;18.88;67.59;95347.94;4991191;28;20033;-73
2022/06/07 00:02:36;;;;;;;1999.90;999.90;;;;;;;19.25;66.47;95344.91;4993005;28;20053;-72
2022/06/07 00:05:02;;;;;;;1999.90;999.90;;;;;;;19.37;65.18;95341.28;4992816;28;20054;-72
2022/06/07 00:07:28;;;;;;;1999.90;999.90;;;;;;;20.08;63.60;95369.63;4991476;28;20113;-72
2022/06/07 00:09:54;;;;;;;1999.90;999.90;;;;;;;19.87;64.02;95361.16;4991218;28;20424;-72
2022/06/07 00:12:20;;;;;;;1999.90;999.90;;;;;;;19.53;64.82;95355.47;4992840;28;20030;-72
2022/06/07 00:14:46;;;;;;;1999.90;999.90;;;;;;;19.39;65.64;95345.16;4991685;28;20018;-73
2022/06/07 00:17:12;;;;;;;1999.90;999.90;;;;;;;20.23;63.97;95382.25;4992726;28;20030;-73
2022/06/07 00:19:39;;;;;;;1999.90;999.90;;;;;;;19.98;64.24;95387.22;4992209;28;20092;-72
2022/06/07 00:22:05;;;;;;;1999.90;999.90;;;;;;;19.82;64.79;95364.94;4991019;28;20044;-73
2022/06/07 00:24:31;;;;;;;1999.90;999.90;;;;;;;20.02;64.14;95360.28;4992285;28;20472;-72
2022/06/07 00:26:57;;;;;;;1999.90;999.90;;;;;;;20.08;64.33;95366.16;4992478;28;20081;-72
2022/06/07 00:29:24;;;;;;;1999.90;999.90;;;;;;;19.49;65.35;95370.78;4990769;28;20029;-73
2022/06/07 00:31:49;;;;;;;1999.90;999.90;;;;;;;19.54;66.84;95367.81;4992272;28;20097;-73
2022/06/07 00:34:15;;;;;;;1999.90;999.90;;;;;;;19.36;67.59;95396.34;4990941;28;20411;-73
2022/06/07 00:36:41;;;;;;;1999.90;999.90;;;;;;;18.72;68.04;95306.78;4991400;28;20049;-72
2022/06/07 00:39:07;;;;;;;1999.90;999.90;;;;;;;18.71;70.40;95404.94;4991993;28;20029;-72
2022/06/07 00:41:33;;;;;;;1999.90;999.90;;;;;;;18.51;71.95;95371.69;4992156;28;20146;-72
2022/06/07 00:44:21;;;;;;;1999.90;999.90;;;;;;;18.26;74.18;95410.72;4991043;28;20347;-73
2022/06/07 00:46:48;;;;;;;1999.90;999.90;;;;;;;18.14;74.42;95355.81;4992309;28;20030;-72
2022/06/07 00:49:17;;;;;;;1999.90;999.90;;;;;;;17.56;77.30;95376.94;4991687;28;20018;-72
2022/06/07 00:51:45;;;;;;;1999.90;999.90;;;;;;;17.85;77.49;95399.25;4991976;28;20121;-71
2022/06/07 00:54:22;;;;;;;1999.90;999.90;;;;;;;17.52;77.93;95423.69;4990677;28;20076;-71
2022/06/07 00:56:48;;;;;;;1999.90;999.90;;;;;;;17.33;77.30;95426.97;4990684;28;20025;-71
2022/06/07 00:59:14;;;;;;;1999.90;999.90;;;;;;;17.27;76.81;95401.47;4990287;28;20022;-71
2022/06/07 01:01:40;;;;;;;1999.90;999.90;;;;;;;16.99;78.56;95428.25;4991765;28;20030;-71
2022/06/07 01:04:06;;;;;;;1999.90;999.90;;;;;;;17.18;78.11;95400.81;4991775;28;20030;-71
2022/06/07 01:11:59;;;;;;;1999.90;999.90;;;;;;;16.37;79.98;95403.25;4991519;28;20041;-71
2022/06/07 01:14:25;;;;;;;1999.90;999.90;;;;;;;16.89;79.18;95403.44;4990192;28;20030;-71
2022/06/07 01:16:50;;;;;;;1999.90;999.90;;;;;;;16.58;80.55;95392.41;4991601;28;20033;-72
2022/06/07 01:19:15;;;;;;;1999.90;999.90;;;;;;;16.67;80.06;95371.59;4991268;28;20498;-72
2022/06/07 01:21:41;;;;;;;1999.90;999.90;;;;;;;16.71;80.03;95402.09;4991441;28;20479;-71
2022/06/07 01:24:07;;;;;;;1999.90;999.90;;;;;;;17.35;78.60;95370.94;4990036;28;20034;-73
2022/06/07 01:26:32;;;;;;;1999.90;999.90;;;;;;;17.24;78.13;95404.81;4991083;28;20027;-71
2022/06/07 01:28:58;;;;;;;1999.90;999.90;;;;;;;16.77;80.04;95383.84;4989731;28;20070;-70
2022/06/07 01:31:23;;;;;;;1999.90;999.90;;;;;;;16.83;80.42;95369.81;4989605;28;20077;-72
2022/06/07 01:33:49;;;;;;;1999.90;999.90;;;;;;;17.05;80.46;95378.56;4990088;28;20026;-72
2022/06/07 01:36:16;;;;;;;1999.90;999.90;;;;;;;17.48;78.30;95358.25;4990809;28;20077;-71
2022/06/07 01:38:44;;;;;;;1999.90;999.90;;;;;;;17.78;77.10;95383.72;4990487;28;20364;-71
2022/06/07 01:43:54;;;;;;;1999.90;999.90;;;;;;;17.06;76.93;95337.91;4991346;28;20041;-71
2022/06/07 01:46:20;;;;;;;1999.90;999.90;;;;;;;17.59;77.33;95310.91;4990776;28;20031;-71
2022/06/07 01:48:48;;;;;;;1999.90;999.90;;;;;;;18.14;76.74;95345.03;4990842;28;20026;-72
2022/06/07 01:51:14;;;;;;;1999.90;999.90;;;;;;;18.28;76.02;95335.75;4991055;28;20045;-71
2022/06/07 01:53:40;;;;;;;1999.90;999.90;;;;;;;18.44;76.02;95353.47;4990858;28;20081;-71
2022/06/07 01:56:08;;;;;;;1999.90;999.90;;;;;;;18.65;76.21;95347.03;4990996;28;20027;-73
2022/06/07 01:58:34;;;;;;;1999.90;999.90;;;;;;;18.82;75.63;95332.41;4989108;28;20033;-72
2022/06/07 02:01:01;;;;;;;1999.90;999.90;;;;;;;18.92;76.08;95318.38;4990813;28;20030;-72
2022/06/07 02:03:26;;;;;;;1999.90;999.90;;;;;;;19.14;76.11;95325.00;4989677;28;20026;-72
2022/06/07 02:05:57;;;;;;;1999.90;999.90;;;;;;;19.26;75.88;95324.88;4990687;28;20081;-72
2022/06/07 02:08:23;;;;;;;1999.90;999.90;;;;;;;19.06;75.42;95329.47;4990122;28;20084;-72
2022/06/07 02:10:48;;;;;;;1999.90;999.90;;;;;;;18.54;74.59;95319.06;4990700;28;20038;-72
2022/06/07 02:13:14;;;;;;;1999.90;999.90;;;;;;;18.32;74.66;95325.84;4990716;28;20057;-71
2022/06/07 02:15:39;;;;;;;1999.90;999.90;;;;;;;18.45;75.33;95313.84;4990892;28;20075;-72
2022/06/07 02:18:04;;;;;;;1999.90;999.90;;;;;;;17.84;77.02;95309.69;4990354;28;20046;-71
2022/06/07 02:20:30;;;;;;;1999.90;999.90;;;;;;;17.61;77.49;95309.47;4990336;28;20109;-72
2022/06/07 02:22:55;;;;;;;1999.90;999.90;;;;;;;17.24;78.76;95340.28;4990605;28;20023;-72
2022/06/07 02:25:20;;;;;;;1999.90;999.90;;;;;;;17.26;79.45;95340.75;4990362;28;20058;-71
2022/06/07 02:27:46;;;;;;;1999.90;999.90;;;;;;;16.62;78.69;95270.56;4990644;28;20026;-72
2022/06/07 02:30:11;;;;;;;1999.90;999.90;;;;;;;17.18;78.89;95317.47;4989871;28;20045;-73
2022/06/07 02:32:39;;;;;;;1999.90;999.90;;;;;;;16.79;80.04;95344.78;4990486;28;20089;-71
2022/06/07 02:35:05;;;;;;;1999.90;999.90;;;;;;;16.37;81.96;95322.72;4990353;28;20037;-71
2022/06/07 02:37:32;;;;;;;1999.90;999.90;;;;;;;16.78;79.86;95324.38;4990499;28;20088;-72
2022/06/07 02:39:58;;;;;;;1999.90;999.90;;;;;;;16.88;79.49;95289.00;4990115;28;20019;-72
2022/06/07 02:42:26;;;;;;;1999.90;999.90;;;;;;;17.02;79.17;95309.34;4990237;28;20376;-72
2022/06/07 02:44:52;;;;;;;1999.90;999.90;;;;;;;16.49;81.41;95338.84;4990425;28;20026;-71
2022/06/07 02:47:17;;;;;;;1999.90;999.90;;;;;;;16.98;80.45;95320.00;4990567;28;20388;-71
2022/06/07 02:49:43;;;;;;;1999.90;999.90;;;;;;;17.04;80.06;95317.84;4989831;28;20023;-71
2022/06/07 02:52:09;;;;;;;1999.90;999.90;;;;;;;17.73;77.66;95348.22;4992900;23;20136;-72
2022/06/07 02:54:37;;;;;;;1999.90;999.90;;;;;;;17.50;77.25;95347.94;4968561;28;20031;-70
2022/06/07 02:57:04;;;;;;;1999.90;999.90;;;;;;;17.47;76.96;95335.19;4970461;28;20030;-70
2022/06/07 02:59:29;;;;;;;1999.90;999.90;;;;;;;18.12;76.86;95341.16;4971126;28;20031;-71
2022/06/07 03:01:54;;;;;;;1999.90;999.90;;;;;;;17.90;75.88;95342.50;4973299;28;20164;-71
2022/06/07 03:04:20;;;;;;;1999.90;999.90;;;;;;;17.64;76.14;95351.00;4972910;28;20118;-71
2022/06/07 03:06:45;;;;;;;1999.90;999.90;;;;;;;18.02;75.97;95344.34;4974401;28;20033;-70
2022/06/07 03:09:10;;;;;;;1999.90;999.90;;;;;;;18.02;75.31;95347.03;4972513;28;20022;-71
2022/06/07 03:11:36;;;;;;;1999.90;999.90;;;;;;;18.32;74.87;95340.06;4974450;28;20125;-70
2022/06/07 03:14:01;;;;;;;1999.90;999.90;;;;;;;18.34;74.71;95345.13;4972968;28;20042;-70
2022/06/07 03:16:26;;;;;;;1999.90;999.90;;;;;;;18.60;74.59;95349.97;4974449;28;20166;-71
2022/06/07 03:18:52;;;;;;;1999.90;999.90;;;;;;;18.83;75.01;95339.34;4973902;28;20079;-71
2022/06/07 03:21:17;;;;;;;1999.90;999.90;;;;;;;18.54;74.43;95346.78;4974482;28;20455;-70
2022/06/07 03:23:42;;;;;;;1999.90;999.90;;;;;;;18.33;74.33;95324.72;4972877;28;20038;-71
2022/06/07 03:26:10;;;;;;;1999.90;999.90;;;;;;;18.59;74.95;95346.50;4972915;28;20080;-71
2022/06/07 03:28:36;;;;;;;1999.90;999.90;;;;;;;18.83;75.13;95356.31;4973780;28;20037;-70
2022/06/07 03:31:06;;;;;;;1999.90;999.90;;;;;;;18.99;74.81;95356.28;4972633;28;20030;-70
2022/06/07 03:33:34;;;;;;;1999.90;999.90;;;;;;;18.82;72.50;95349.34;4974062;28;20083;-71
2022/06/07 03:36:09;;;;;;;1999.90;999.90;;;;;;;18.84;73.89;95336.31;4974240;28;20046;-71
2022/06/07 03:38:35;;;;;;;1999.90;999.90;;;;;;;19.02;74.70;95330.53;4972493;28;20118;-71
2022/06/07 03:41:00;;;;;;;1999.90;999.90;;;;;;;19.13;73.71;95337.69;4973714;28;20488;-71
2022/06/07 03:43:26;;;;;;;1999.90;999.90;;;;;;;19.08;74.08;95323.72;4973858;28;20034;-71
2022/06/07 03:45:51;;;;;;;1999.90;999.90;;;;;;;19.32;74.39;95346.94;4972543;28;20033;-70
2022/06/07 03:48:17;;;;;;;1999.90;999.90;;;;;;;19.42;74.04;95333.66;4972107;28;20031;-71
2022/06/07 03:50:42;;;;;;;1999.90;999.90;;;;;;;19.60;74.17;95344.06;4972058;28;20035;-71
2022/06/07 03:53:07;;;;;;;1999.90;999.90;;;;;;;19.63;74.06;95336.03;4973888;28;20056;-70
2022/06/07 03:55:33;;;;;;;1999.90;999.90;;;;;;;19.79;74.34;95354.06;4973549;28;20472;-71
2022/06/07 03:57:58;;;;;;;1999.90;999.90;;;;;;;19.84;73.85;95353.75;4973549;28;20468;-69
2022/06/07 04:00:24;;;;;;;1999.90;999.90;;;;;;;19.85;73.84;95350.69;4973405;28;20034;-70
2022/06/07 04:02:49;;;;;;;1999.90;999.90;;;;;;;19.95;73.75;95349.34;4973616;28;20095;-69
2022/06/07 04:05:14;;;;;;;1999.90;999.90;;;;;;;19.94;73.60;95348.56;4973478;28;20062;-69
2022/06/07 04:10:24;;;;;;;1999.90;999.90;;;;;;;19.95;73.80;95347.41;4973353;28;20037;-69
2022/06/07 04:12:49;;;;;;;1999.90;999.90;;;;;;;20.00;73.35;95351.75;4973780;28;20106;-69
2022/06/07 04:15:15;;;;;;;1999.90;999.90;;;;;;;19.44;70.83;95352.19;4973392;28;20033;-69
2022/06/07 04:17:40;;;;;;;1999.90;999.90;;;;;;;19.05;71.92;95343.31;4973294;28;20030;-69
2022/06/07 04:20:06;;;;;;;1999.90;999.90;;;;;;;19.10;73.35;95341.13;4971738;28;20025;-69
2022/06/07 04:22:31;;;;;;;1999.90;999.90;;;;;;;19.29;73.79;95345.72;4973058;28;20118;-69
2022/06/07 04:24:57;;;;;;;1999.90;999.90;;;;;;;19.44;73.65;95336.78;4973241;28;20096;-69
2022/06/07 04:27:22;;;;;;;1999.90;999.90;;;;;;;19.48;73.65;95324.16;4973003;28;20114;-69
2022/06/07 04:29:47;;;;;;;1999.90;999.90;;;;;;;19.28;72.52;95316.44;4972398;28;20435;-69
2022/06/07 04:32:13;;;;;;;1999.90;999.90;;;;;;;19.20;72.79;95337.09;4971356;28;20583;-70
2022/06/07 04:34:39;;;;;;;1999.90;999.90;;;;;;;19.09;72.86;95334.16;4972948;28;20098;-70
2022/06/07 04:37:05;;;;;;;1999.90;999.90;;;;;;;18.72;70.41;95338.34;4973098;28;20502;-69
2022/06/07 04:39:31;;;;;;;1999.90;999.90;;;;;;;18.83;72.90;95329.34;4972513;28;20482;-69
2022/06/07 04:41:57;;;;;;;1999.90;999.90;;;;;;;19.03;73.78;95329.38;4973073;28;20031;-69
2022/06/07 04:44:22;;;;;;;1999.90;999.90;;;;;;;19.27;73.81;95328.34;4972592;28;20106;-69
2022/06/07 04:46:49;;;;;;;1999.90;999.90;;;;;;;19.52;73.99;95337.72;4972846;28;20167;-68
2022/06/07 04:49:14;;;;;;;1999.90;999.90;;;;;;;19.80;73.16;95334.00;4972257;28;20081;-69
2022/06/07 04:51:39;;;;;;;1999.90;999.90;;;;;;;19.81;73.55;95327.47;4971271;28;20074;-69
2022/06/07 04:54:05;;;;;;;1999.90;999.90;;;;;;;19.95;73.35;95339.31;4972539;28;20088;-68
2022/06/07 04:56:33;;;;;;;1999.90;999.90;;;;;;;20.03;73.28;95332.13;4972469;28;20027;-69
2022/06/07 04:59:00;;;;;;;1999.90;999.90;;;;;;;20.12;73.33;95332.69;4972169;28;20093;-69
2022/06/07 05:01:29;;;;;;;1999.90;999.90;;;;;;;20.13;72.91;95317.25;4971452;28;20069;-69
2022/06/07 05:03:54;;;;;;;1999.90;999.90;;;;;;;20.03;72.91;95315.16;4972426;28;20472;-69
2022/06/07 05:06:23;;;;;;;1999.90;999.90;;;;;;;20.13;72.82;95328.84;4972451;28;20023;-69
2022/06/07 05:08:49;;;;;;;1999.90;999.90;;;;;;;20.19;72.88;95327.38;4972243;28;20027;-70
2022/06/07 05:11:14;;;;;;;1999.90;999.90;;;;;;;20.18;72.88;95320.44;4970819;28;20059;-70
2022/06/07 05:13:40;;;;;;;1999.90;999.90;;;;;;;20.09;71.18;95329.91;4972267;28;20054;-70
2022/06/07 05:16:06;;;;;;;1999.90;999.90;;;;;;;18.82;69.81;95335.88;4971940;28;20138;-69
2022/06/07 05:18:31;;;;;;;1999.90;999.90;;;;;;;18.83;71.46;95320.50;4970519;28;20027;-69
2022/06/07 05:20:57;;;;;;;1999.90;999.90;;;;;;;18.76;71.83;95321.13;4971710;28;20037;-69
2022/06/07 05:23:22;;;;;;;1999.90;999.90;;;;;;;18.53;72.16;95320.97;4971617;28;20082;-71
2022/06/07 05:26:00;;;;;;;1999.90;999.90;;;;;;;18.25;73.54;95331.06;4971969;28;20027;-69
2022/06/07 05:28:26;;;;;;;1999.90;999.90;;;;;;;18.56;73.38;95328.34;4971534;28;20088;-69
2022/06/07 05:30:51;;;;;;;1999.90;999.90;;;;;;;19.00;73.24;95327.41;4971785;28;20541;-69
2022/06/07 05:33:17;;;;;;;1999.90;999.90;;;;;;;18.76;71.42;95323.81;4970647;28;20031;-69
2022/06/07 05:35:42;;;;;;;1999.90;999.90;;;;;;;18.77;72.03;95332.69;4971591;28;20019;-69
2022/06/07 05:38:10;;;;;;;1999.90;999.90;;;;;;;18.54;72.24;95335.22;4971443;28;20425;-69
2022/06/07 05:40:36;;;;;;;1999.90;999.90;;;;;;;17.81;72.76;95344.56;4971567;28;20444;-70
2022/06/07 05:43:01;;;;;;;1999.90;999.90;;;;;;;17.57;76.04;95340.84;4970389;28;20114;-68
2022/06/07 05:45:26;;;;;;;1999.90;999.90;;;;;;;17.12;76.99;95335.75;4971740;28;20037;-68
2022/06/07 05:47:52;;;;;;;1999.90;999.90;;;;;;;17.87;74.57;95335.13;4970982;28;20058;-73
2022/06/07 05:50:17;;;;;;;1999.90;999.90;;;;;;;18.56;74.99;95325.66;4971898;28;20031;-71
2022/06/07 05:52:42;;;;;;;1999.90;999.90;;;;;;;18.92;75.06;95315.69;4971218;28;20484;-67
2022/06/07 05:55:08;;;;;;;1999.90;999.90;;;;;;;19.18;74.59;95306.97;4971371;28;20513;-66
2022/06/07 05:57:34;;;;;;;1999.90;999.90;;;;;;;19.56;74.57;95319.69;4969200;28;20026;-67
2022/06/07 06:00:00;;;;;;;1999.90;999.90;;;;;;;19.85;74.18;95314.81;4971097;28;20208;-67
2022/06/07 06:02:25;;;;;;;1999.90;999.90;;;;;;;20.21;73.93;95313.50;4971062;28;20022;-68
2022/06/07 06:04:51;;;;;;;1999.90;999.90;;;;;;;20.45;73.26;95318.53;4970017;28;20127;-67
2022/06/07 06:07:16;;;;;;;1999.90;999.90;;;;;;;20.50;73.26;95320.97;4971503;28;20035;-68
2022/06/07 06:12:25;;;;;;;1999.90;999.90;;;;;;;20.75;72.22;95324.03;4971404;28;20130;-67
2022/06/07 06:14:51;;;;;;;1999.90;999.90;;;;;;;20.84;72.07;95312.97;4971466;28;20106;-67
2022/06/07 06:17:16;;;;;;;1999.90;999.90;;;;;;;21.07;71.74;95315.59;4969928;28;20027;-67
2022/06/07 06:19:42;;;;;;;1999.90;999.90;;;;;;;21.20;71.01;95322.34;4970869;28;20034;-67
2022/06/07 06:22:07;;;;;;;1999.90;999.90;;;;;;;21.31;70.53;95319.78;4971227;28;20474;-68
2022/06/07 06:24:33;;;;;;;1999.90;999.90;;;;;;;21.33;70.32;95322.13;4971242;28;20027;-68
2022/06/07 06:26:59;;;;;;;1999.90;999.90;;;;;;;21.24;70.20;95316.94;4971239;28;20030;-68
2022/06/07 06:29:25;;;;;;;1999.90;999.90;;;;;;;21.21;70.01;95326.59;4969356;28;20030;-68
2022/06/07 06:31:51;;;;;;;1999.90;999.90;;;;;;;21.19;70.43;95322.69;4969732;28;20515;-70
2022/06/07 06:34:17;;;;;;;1999.90;999.90;;;;;;;20.55;66.19;95327.97;4971205;28;20571;-68
2022/06/07 06:36:44;;;;;;;1999.90;999.90;;;;;;;20.04;68.80;95339.09;4973504;28;20113;-69
2022/06/07 06:39:09;;;;;;;1999.90;999.90;;;;;;;19.98;68.13;95330.50;4974757;28;20073;-68
2022/06/07 06:41:35;;;;;;;1999.90;999.90;;;;;;;19.40;69.66;95325.16;4975142;28;20026;-68
2022/06/07 06:44:01;;;;;;;1999.90;999.90;;;;;;;19.29;70.12;95343.03;4973747;28;20480;-67
2022/06/07 06:46:39;;;;;;;1999.90;999.90;;;;;;;19.22;70.08;95330.19;4973410;28;20031;-68
2022/06/07 06:49:06;;;;;;;1999.90;999.90;;;;;;;19.49;71.36;95333.81;4974491;28;20464;-67
2022/06/07 06:51:32;;;;;;;1999.90;999.90;;;;;;;18.82;70.65;95348.56;4974678;28;20046;-72
2022/06/07 06:53:59;;;;;;;1999.90;999.90;;;;;;;18.37;72.07;95352.50;4973739;28;20026;-72
2022/06/07 06:56:28;;;;;;;1999.90;999.90;;;;;;;18.26;72.97;95352.25;4973474;28;20030;-72
2022/06/07 06:58:53;;;;;;;1999.90;999.90;;;;;;;18.06;75.09;95355.97;4973419;28;20042;-68
2022/06/07 07:01:22;;;;;;;1999.90;999.90;;;;;;;18.31;75.10;95338.53;4973655;28;20472;-69
2022/06/07 07:03:48;;;;;;;1999.90;999.90;;;;;;;18.48;74.76;95358.94;4974543;28;20034;-69
2022/06/07 07:06:15;;;;;;;1999.90;999.90;;;;;;;18.67;74.48;95360.91;4973453;28;20057;-71
2022/06/07 07:08:42;;;;;;;1999.90;999.90;;;;;;;18.69;74.53;95359.47;4974453;28;20050;-68
2022/06/07 07:11:17;;;;;;;1999.90;999.90;;;;;;;18.74;74.33;95360.34;4974613;28;20395;-68
2022/06/07 07:13:43;;;;;;;1999.90;999.90;;;;;;;18.70;73.10;95363.72;4974566;28;20029;-69
2022/06/07 07:16:12;;;;;;;1999.90;999.90;;;;;;;18.33;75.23;95371.28;4974520;28;20114;-68
2022/06/07 07:18:38;;;;;;;1999.90;999.90;;;;;;;17.98;74.40;95373.84;4974085;28;20049;-67
2022/06/07 07:21:06;;;;;;;1999.90;999.90;;;;;;;17.94;73.66;95375.66;4974192;28;20073;-68
2022/06/07 07:23:32;;;;;;;1999.90;999.90;;;;;;;17.99;76.25;95372.72;4974181;28;20031;-68
2022/06/07 07:26:06;;;;;;;1999.90;999.90;;;;;;;18.01;75.20;95380.44;4972988;28;20126;-68
2022/06/07 07:28:33;;;;;;;1999.90;999.90;;;;;;;17.62;74.97;95375.56;4973804;28;20015;-68
2022/06/07 07:31:05;;;;;;;1999.90;999.90;;;;;;;18.06;74.68;95386.34;4974063;28;20121;-68
2022/06/07 07:33:31;;;;;;;1999.90;999.90;;;;;;;18.32;75.84;95385.84;4974221;28;20194;-68
2022/06/07 07:35:59;;;;;;;1999.90;999.90;;;;;;;18.84;75.63;95386.75;4974081;28;20098;-68
2022/06/07 07:38:25;;;;;;;1999.90;999.90;;;;;;;19.22;75.64;95394.91;4973275;28;20030;-68
2022/06/07 07:40:51;;;;;;;1999.90;999.90;;;;;;;18.60;74.40;95391.16;4972752;28;20110;-68
2022/06/07 07:43:17;;;;;;;1999.90;999.90;;;;;;;17.60;75.29;95380.50;4972492;28;20527;-71
2022/06/07 07:45:42;;;;;;;1999.90;999.90;;;;;;;17.29;77.44;95399.19;4971830;28;20065;-68
2022/06/07 07:48:08;;;;;;;1999.90;999.90;;;;;;;17.03;78.56;95391.53;4973510;28;20062;-68
2022/06/07 07:50:34;;;;;;;1999.90;999.90;;;;;;;16.90;78.10;95390.78;4972312;28;20375;-75
2022/06/07 07:52:59;;;;;;;1999.90;999.90;;;;;;;17.09;77.45;95390.94;4972161;28;20167;-73
2022/06/07 07:55:26;;;;;;;1999.90;999.90;;;;;;;17.56;77.68;95392.31;4973632;28;20023;-74
2022/06/07 07:57:51;;;;;;;1999.90;999.90;;;;;;;17.32;77.70;95383.19;4984695;28;20034;-74
2022/06/07 08:00:17;;;;;;;1999.90;999.90;;;;;;;17.88;76.42;95377.06;4983339;28;20026;-75
2022/06/07 08:02:42;;;;;;;1999.90;999.90;;;;;;;18.55;76.03;95391.44;4973995;28;20033;-77
2022/06/07 08:05:09;;;;;;;1999.90;999.90;;;;;;;19.13;75.80;95386.22;4973197;28;20030;-76
2022/06/07 08:07:35;;;;;;;1999.90;999.90;;;;;;;19.66;75.13;95381.22;4973836;28;20468;-75
2022/06/07 08:10:03;;;;;;;1999.90;999.90;;;;;;;20.11;74.68;95385.09;4971928;28;20607;-75
2022/06/07 08:12:29;;;;;;;1999.90;999.90;;;;;;;20.36;74.30;95372.03;4973808;28;20034;-75
2022/06/07 08:14:54;;;;;;;1999.90;999.90;;;;;;;19.78;71.58;95363.28;4973704;28;20031;-75
2022/06/07 08:17:20;;;;;;;1999.90;999.90;;;;;;;18.38;69.54;95372.94;4972821;28;20035;-75
2022/06/07 08:19:45;;;;;;;1999.90;999.90;;;;;;;18.11;72.17;95390.72;4971937;28;20039;-75
2022/06/07 08:22:11;;;;;;;1999.90;999.90;;;;;;;17.85;75.05;95388.50;4972094;28;20037;-75
2022/06/07 08:24:37;;;;;;;1999.90;999.90;;;;;;;17.67;75.38;95385.31;4972443;28;20053;-75
2022/06/07 08:27:03;;;;;;;1999.90;999.90;;;;;;;17.87;75.27;95392.41;4972576;28;20058;-76
2022/06/07 08:29:29;;;;;;;1999.90;999.90;;;;;;;17.84;75.75;95395.00;4973512;28;20450;-77
2022/06/07 08:31:54;;;;;;;1999.90;999.90;;;;;;;17.38;75.93;95381.03;4972148;28;20162;-75
2022/06/07 08:39:54;;;;;;;1999.90;999.90;;;;;;;17.34;77.31;95394.38;4973437;28;20109;-75
2022/06/07 08:42:30;;;;;;;1999.90;999.90;;;;;;;17.83;76.11;95404.22;4971966;28;20113;-77
2022/06/07 08:45:13;;;;;;;1999.90;999.90;;;;;;;18.55;74.24;95399.50;4972030;28;20373;-76
2022/06/07 08:47:49;;;;;;;1999.90;999.90;;;;;;;17.75;75.96;95403.22;4972866;28;20118;-77
2022/06/07 08:50:28;;;;;;;1999.90;999.90;;;;;;;18.41;74.00;95407.25;4972170;28;20023;-76
2022/06/07 08:52:58;;;;;;;1999.90;999.90;;;;;;;17.70;74.43;95402.66;4972595;28;20049;-79
2022/06/07 08:55:36;;;;;;;1999.90;999.90;;;;;;;17.55;76.09;95321.56;5311564;23;20100;-70
2022/06/07 08:58:38;;;;;;;1999.90;999.90;;;;;;;18.13;74.69;95316.56;5010222;28;20029;-68
2022/06/07 09:01:40;;;;;;;1999.90;999.90;;;;;;;18.77;74.60;95408.13;5011722;28;20128;-73
2022/06/07 09:04:19;;;;;;;1999.90;999.90;;;;;;;17.22;77.19;95402.47;5011281;28;20037;-69
2022/06/07 09:06:48;;;;;;;1999.90;999.90;;;;;;;17.15;76.15;95321.63;5011087;28;20053;-69
2022/06/07 09:09:16;;;;;;;1999.90;999.90;;;;;;;17.48;77.17;95331.38;5009408;28;20022;-71
2022/06/07 09:12:14;;;;;;;1999.90;999.90;;;;;;;17.83;74.81;95388.06;5011525;28;20025;-70
2022/06/07 09:14:53;;;;;;;1999.90;999.90;;;;;;;17.75;75.31;95410.50;5010312;28;20087;-71
2022/06/07 09:17:33;;;;;;;1999.90;999.90;;;;;;;17.40;77.03;95400.28;5011464;28;20026;-73
2022/06/07 09:20:00;;;;;;;1999.90;999.90;;;;;;;17.59;77.32;95408.53;5011290;28;20029;-70
2022/06/07 09:22:37;;;;;;;1999.90;999.90;;;;;;;18.08;76.18;95392.19;5009715;28;20371;-70
2022/06/07 09:25:14;;;;;;;1999.90;999.90;;;;;;;19.12;75.83;95398.16;5003738;28;20035;-75
2022/06/07 09:27:45;;;;;;;1999.90;999.90;;;;;;;19.76;72.07;95397.94;4990746;28;20487;-79
2022/06/07 09:30:17;;;;;;;1999.90;999.90;;;;;;;19.56;72.36;95392.53;4990044;28;20061;-76
2022/06/07 09:32:45;;;;;;;1999.90;999.90;;;;;;;19.87;72.23;95363.84;4991603;28;20041;-78
2022/06/07 09:35:35;;;;;;;1999.90;999.90;;;;;;;19.33;72.57;95365.47;4991531;28;20026;-77
2022/06/07 09:38:30;;;;;;;1999.90;999.90;;;;;;;19.20;72.29;95383.72;4991233;28;20031;-77
2022/06/07 09:41:04;;;;;;;1999.90;999.90;;;;;;;18.59;74.53;95386.91;4991566;28;20050;-75
2022/06/07 09:43:40;;;;;;;1999.90;999.90;;;;;;;18.07;75.41;95387.94;4990339;28;20049;-70
2022/06/07 09:46:10;;;;;;;1999.90;999.90;;;;;;;18.50;75.41;95397.09;4991123;28;20026;-71
2022/06/07 09:48:45;;;;;;;1999.90;999.90;;;;;;;18.71;75.06;95380.66;4990670;28;20471;-73
2022/06/07 09:51:19;;;;;;;1999.90;999.90;;;;;;;19.46;74.49;95395.81;4991222;28;20113;-72
2022/06/07 09:53:57;;;;;;;1999.90;999.90;;;;;;;19.14;71.77;95403.19;4991229;28;20057;-72
2022/06/07 09:56:47;;;;;;;1999.90;999.90;;;;;;;18.12;72.63;95403.84;4989498;28;20057;-73
2022/06/07 09:59:33;;;;;;;1999.90;999.90;;;;;;;18.32;72.11;95409.31;4989805;28;20418;-76
2022/06/07 10:02:24;;;;;;;1999.90;999.90;;;;;;;19.31;71.56;95381.22;4990986;28;20037;-70
2022/06/07 10:05:08;;;;;;;1999.90;999.90;;;;;;;18.72;69.81;95403.78;4991388;28;20022;-72
2022/06/07 10:07:45;;;;;;;1999.90;999.90;;;;;;;18.42;73.03;95390.72;4990710;28;20106;-72
2022/06/07 10:10:25;;;;;;;1999.90;999.90;;;;;;;18.73;72.21;95391.09;4990265;28;20026;-79
2022/06/07 10:13:17;;;;;;;1999.90;999.90;;;;;;;19.02;70.62;95352.09;4991032;28;20026;-74
2022/06/07 10:16:04;;;;;;;1999.90;999.90;;;;;;;19.30;70.29;95376.97;4989569;28;20113;-73
2022/06/07 10:18:51;;;;;;;1999.90;999.90;;;;;;;19.46;69.32;95382.31;4989680;28;20046;-79
2022/06/07 10:22:02;;;;;;;1999.90;999.90;;;;;;;20.97;70.49;95337.84;4990385;28;20391;-72
2022/06/07 10:24:42;;;;;;;1999.90;999.90;;;;;;;21.28;66.34;95336.72;4989712;28;20034;-71
2022/06/07 10:27:22;;;;;;;1999.90;999.90;;;;;;;21.44;63.42;95385.25;4971299;28;20105;-72
2022/06/07 10:29:56;;;;;;;1999.90;999.90;;;;;;;20.50;64.31;95393.16;4970859;28;20031;-72
2022/06/07 10:32:24;;;;;;;1999.90;999.90;;;;;;;20.43;63.77;95385.69;4970797;28;20037;-72
2022/06/07 10:34:54;;;;;;;1999.90;999.90;;;;;;;20.62;64.57;95382.13;4971186;28;20054;-71
2022/06/07 10:37:37;;;;;;;1999.90;999.90;;;;;;;19.58;65.68;95379.47;4971022;28;20031;-72
2022/06/07 10:40:12;;;;;;;1999.90;999.90;;;;;;;19.27;68.37;95395.78;4978380;28;20057;-73
2022/06/07 10:42:51;;;;;;;1999.90;999.90;;;;;;;19.82;69.70;95380.34;5008561;28;20084;-73
2022/06/07 10:45:27;;;;;;;1999.90;999.90;;;;;;;20.99;68.43;95357.22;5010081;28;20030;-73
2022/06/07 10:48:33;;;;;;;1999.90;999.90;;;;;;;21.14;62.98;95374.41;5010046;28;20030;-72
2022/06/07 10:51:03;;;;;;;1999.90;999.90;;;;;;;21.44;65.65;95364.38;5009866;28;20036;-68
2022/06/07 10:53:36;;;;;;;1999.90;999.90;;;;;;;21.27;62.18;95364.91;5008520;28;20037;-67
2022/06/07 10:56:14;;;;;;;1999.90;999.90;;;;;;;21.85;63.71;95363.69;4998158;28;20042;-67
2022/06/07 10:58:46;;;;;;;1999.90;999.90;;;;;;;20.89;64.27;95365.94;4989904;28;20031;-67
2022/06/07 11:01:19;;;;;;;1999.90;999.90;;;;;;;21.96;65.02;95354.56;4990265;28;20033;-76
2022/06/07 11:04:10;;;;;;;1999.90;999.90;;;;;;;22.16;65.22;95357.88;4988950;28;20058;-75
2022/06/07 11:09:35;;;;;;;1999.90;999.90;;;;;;;21.84;64.80;95362.91;4990068;28;20041;-73
2022/06/07 11:12:08;;;;;;;1999.90;999.90;;;;;;;23.42;63.58;95365.75;5008202;28;20030;-73
2022/06/07 11:15:01;;;;;;;1999.90;999.90;;;;;;;23.15;57.71;95367.94;5008393;28;20034;-74
2022/06/07 11:17:40;;;;;;;1999.90;999.90;;;;;;;22.74;61.77;95359.13;5008666;28;20040;-74
2022/06/07 11:20:20;;;;;;;1999.90;999.90;;;;;;;23.62;62.30;95352.66;5009281;28;20084;-74
2022/06/07 11:22:52;;;;;;;1999.90;999.90;;;;;;;24.27;62.22;95359.84;5011949;28;20566;-76
2022/06/07 11:25:41;;;;;;;1999.90;999.90;;;;;;;24.93;61.61;95345.06;5012314;28;20112;-76